Time;durP1;ratioP1;P1;durP2;ratioP2;P2;SDS_P1;SDS_P2;PMS_P1;PMS_P2;Temp;Humidity;BMP_temperature;BMP_pressure;BME280_temperature;BME280_humidity;BME280_pressure;Samples;Min_cycle;Max_cycle;Signal;HPM_P1;HPM_P2
2023/04/19 00:01:27;;;;;;;11.03;9.93;;;;;;;10.53;100.00;99575.63;5112572;28;20215;-77
2023/04/19 00:03:54;;;;;;;11.50;9.90;;;;;;;10.43;100.00;99572.63;5114628;28;20248;-78
2023/04/19 00:06:22;;;;;;;10.93;9.83;;;;;;;10.38;100.00;99570.59;5105234;28;20207;-78
2023/04/19 00:08:48;;;;;;;10.70;9.67;;;;;;;10.37;100.00;99571.63;5109132;28;20287;-79
2023/04/19 00:11:15;;;;;;;11.23;10.13;;;;;;;10.42;100.00;99570.97;5101486;28;20217;-79
2023/04/19 00:13:42;;;;;;;11.23;10.03;;;;;;;10.34;100.00;99571.25;5112416;28;20192;-78
2023/04/19 00:16:08;;;;;;;10.67;9.67;;;;;;;10.28;100.00;99569.44;5116557;28;20623;-78
2023/04/19 00:18:37;;;;;;;10.73;9.73;;;;;;;10.30;100.00;99572.75;5114682;28;20744;-79
2023/04/19 00:21:04;;;;;;;10.23;9.23;;;;;;;10.25;100.00;99568.03;5111830;28;20211;-79
2023/04/19 00:23:31;;;;;;;11.00;9.90;;;;;;;10.21;100.00;99561.50;5113300;28;20192;-79
2023/04/19 00:25:57;;;;;;;11.77;10.67;;;;;;;10.36;100.00;99561.97;5113482;28;20211;-78
2023/04/19 00:28:24;;;;;;;13.07;10.33;;;;;;;10.30;100.00;99556.69;5112840;28;20230;-79
2023/04/19 00:30:51;;;;;;;11.93;9.57;;;;;;;10.34;100.00;99549.84;5114842;28;20214;-79
2023/04/19 00:33:18;;;;;;;11.03;9.90;;;;;;;10.31;100.00;99550.28;5098240;28;20294;-79
2023/04/19 00:35:45;;;;;;;11.30;10.20;;;;;;;10.37;100.00;99550.22;5107700;28;20227;-79
2023/04/19 00:38:12;;;;;;;11.57;10.43;;;;;;;10.31;100.00;99543.03;5102346;28;20225;-79
2023/04/19 00:40:38;;;;;;;12.57;10.27;;;;;;;10.24;100.00;99547.66;5113338;28;20259;-78
2023/04/19 00:43:05;;;;;;;11.70;10.50;;;;;;;10.18;100.00;99540.50;5114735;28;20275;-79
2023/04/19 00:45:34;;;;;;;11.27;10.17;;;;;;;10.26;100.00;99540.25;5095015;28;20195;-79
2023/04/19 00:48:01;;;;;;;11.67;10.47;;;;;;;10.22;100.00;99535.53;5093902;28;20201;-79
2023/04/19 00:50:28;;;;;;;11.07;10.07;;;;;;;10.17;100.00;99538.88;5115075;28;20194;-80
2023/04/19 00:52:55;;;;;;;11.10;10.00;;;;;;;10.22;100.00;99539.00;5115011;28;20271;-80
2023/04/19 00:55:24;;;;;;;11.80;10.20;;;;;;;10.14;100.00;99533.91;5070510;28;20248;-78
2023/04/19 00:57:50;;;;;;;12.07;10.70;;;;;;;10.06;100.00;99531.50;5109718;28;20211;-78
2023/04/19 01:00:18;;;;;;;11.47;10.37;;;;;;;9.99;100.00;99536.91;5113978;28;20191;-78
2023/04/19 01:02:46;;;;;;;11.90;10.57;;;;;;;10.02;100.00;99541.84;5110757;28;20196;-80
2023/04/19 01:05:13;;;;;;;12.23;11.00;;;;;;;10.02;100.00;99527.63;5115321;28;20242;-79
2023/04/19 01:07:42;;;;;;;11.20;10.20;;;;;;;10.01;100.00;99523.31;5096616;28;20235;-79
2023/04/19 01:10:09;;;;;;;11.40;10.37;;;;;;;9.90;100.00;99518.66;5115447;28;20265;-80
2023/04/19 01:12:36;;;;;;;11.97;10.77;;;;;;;9.84;100.00;99522.22;5117081;28;20211;-79
2023/04/19 01:15:03;;;;;;;12.57;10.53;;;;;;;9.76;100.00;99525.13;5101603;28;20278;-79
2023/04/19 01:17:31;;;;;;;12.30;10.70;;;;;;;9.69;100.00;99518.00;5113778;28;20667;-79
2023/04/19 01:20:05;;;;;;;11.40;10.30;;;;;;;9.68;100.00;99520.88;5099201;28;20203;-81
2023/04/19 01:22:36;;;;;;;11.17;10.10;;;;;;;9.57;100.00;99516.22;5105023;28;20274;-79
2023/04/19 01:25:04;;;;;;;11.87;10.67;;;;;;;9.55;100.00;99510.28;5105088;28;20199;-80
2023/04/19 01:27:31;;;;;;;12.30;11.00;;;;;;;9.47;100.00;99514.00;5098426;28;20203;-80
2023/04/19 01:30:01;;;;;;;12.57;11.37;;;;;;;9.49;100.00;99511.94;5097999;28;20204;-80
2023/04/19 01:32:27;;;;;;;11.70;10.60;;;;;;;9.36;100.00;99509.38;5118774;28;20812;-79
2023/04/19 01:34:54;;;;;;;12.97;11.57;;;;;;;9.32;100.00;99504.66;5101587;28;20198;-78
2023/04/19 01:37:21;;;;;;;12.40;11.20;;;;;;;9.32;100.00;99505.47;5101151;28;20191;-78
2023/04/19 01:39:48;;;;;;;12.83;11.63;;;;;;;9.16;100.00;99509.47;5103513;28;20760;-78
2023/04/19 01:42:15;;;;;;;13.43;12.10;;;;;;;9.10;100.00;99507.63;5096678;28;20610;-79
2023/04/19 01:44:41;;;;;;;12.27;11.13;;;;;;;9.02;100.00;99507.88;5112955;28;20195;-78
2023/04/19 01:47:08;;;;;;;13.33;12.03;;;;;;;8.94;100.00;99505.47;5113563;28;20255;-79
2023/04/19 01:49:35;;;;;;;13.50;12.20;;;;;;;9.06;100.00;99498.41;5111436;28;20215;-78
2023/04/19 01:52:02;;;;;;;13.73;12.43;;;;;;;9.01;100.00;99497.41;5100486;28;20305;-79
2023/04/19 01:54:28;;;;;;;13.30;11.90;;;;;;;9.02;100.00;99499.88;5100482;28;20206;-80
2023/04/19 01:56:55;;;;;;;13.63;12.30;;;;;;;8.97;100.00;99498.84;5110304;28;20658;-78
2023/04/19 01:59:22;;;;;;;13.87;12.33;;;;;;;8.87;100.00;99485.13;5100519;28;20230;-78
2023/04/19 02:01:49;;;;;;;14.67;13.17;;;;;;;8.82;100.00;99496.44;5094886;28;20231;-79
2023/04/19 02:04:19;;;;;;;13.57;12.17;;;;;;;8.73;100.00;99495.03;5107177;28;20190;-78
2023/04/19 02:06:46;;;;;;;14.80;13.40;;;;;;;8.68;100.00;99487.66;5094188;28;20314;-79
2023/04/19 02:09:13;;;;;;;15.57;13.70;;;;;;;8.69;100.00;99497.31;5106378;28;20191;-78
2023/04/19 02:11:41;;;;;;;15.93;14.23;;;;;;;8.68;100.00;99494.84;5108960;28;20211;-78
2023/04/19 02:14:07;;;;;;;14.77;13.27;;;;;;;8.63;100.00;99497.34;5111869;28;20565;-78
2023/04/19 02:16:34;;;;;;;14.90;13.40;;;;;;;8.52;100.00;99485.47;5103629;28;20198;-78
2023/04/19 02:19:02;;;;;;;15.63;14.03;;;;;;;8.40;100.00;99487.13;5102592;28;20191;-78
2023/04/19 02:21:28;;;;;;;17.83;14.27;;;;;;;8.50;100.00;99486.69;5094696;28;20286;-79
2023/04/19 02:23:55;;;;;;;17.37;14.43;;;;;;;8.47;100.00;99481.78;5113749;28;20197;-78
2023/04/19 02:26:23;;;;;;;16.10;14.43;;;;;;;8.53;100.00;99487.13;5102197;28;20584;-78
2023/04/19 02:28:51;;;;;;;17.03;13.70;;;;;;;8.59;100.00;99480.91;5113058;28;20266;-77
2023/04/19 02:31:18;;;;;;;16.43;14.67;;;;;;;8.57;100.00;99482.16;5071623;28;20224;-78
2023/04/19 02:33:45;;;;;;;15.97;14.27;;;;;;;8.60;100.00;99479.88;5112206;28;20577;-78
2023/04/19 02:36:12;;;;;;;16.93;15.13;;;;;;;8.68;100.00;99481.50;5094794;28;20191;-77
2023/04/19 02:38:38;;;;;;;17.97;14.90;;;;;;;8.73;100.00;99489.69;5098803;28;20186;-78
2023/04/19 02:41:05;;;;;;;17.23;15.43;;;;;;;8.52;100.00;99481.97;5109379;28;20259;-78
2023/04/19 02:43:32;;;;;;;17.53;15.83;;;;;;;8.65;100.00;99480.09;5114606;28;20187;-79
2023/04/19 02:45:58;;;;;;;17.40;15.50;;;;;;;8.73;100.00;99479.84;5116110;28;20191;-78
2023/04/19 02:48:25;;;;;;;19.07;15.53;;;;;;;8.80;100.00;99467.28;5100269;28;20566;-79
2023/04/19 02:50:52;;;;;;;18.10;16.20;;;;;;;8.87;100.00;99471.78;5099245;28;20245;-79
2023/04/19 02:53:19;;;;;;;18.77;16.60;;;;;;;9.15;100.00;99469.56;5098127;28;20191;-78
2023/04/19 02:55:47;;;;;;;18.03;16.13;;;;;;;9.11;100.00;99466.50;5093553;28;20256;-81
2023/04/19 02:58:17;;;;;;;18.47;16.40;;;;;;;9.11;100.00;99465.69;5099220;28;20238;-81
2023/04/19 03:00:55;;;;;;;18.00;16.00;;;;;;;9.29;100.00;99460.44;5097315;28;20203;-81
2023/04/19 03:03:22;;;;;;;17.03;15.30;;;;;;;9.37;100.00;99462.06;5101073;28;20195;-83
2023/04/19 03:05:49;;;;;;;17.53;15.50;;;;;;;9.42;100.00;99460.38;5092539;28;20195;-81
2023/04/19 03:08:16;;;;;;;17.80;16.00;;;;;;;9.38;100.00;99458.34;5096908;28;20311;-80
2023/04/19 03:10:44;;;;;;;17.93;16.00;;;;;;;9.42;100.00;99457.72;5088670;28;20745;-80
2023/04/19 03:13:10;;;;;;;18.47;16.13;;;;;;;9.70;100.00;99457.31;5094162;28;20231;-80
2023/04/19 03:15:37;;;;;;;18.40;16.50;;;;;;;9.63;100.00;99441.28;5099400;28;20204;-80
2023/04/19 03:18:04;;;;;;;17.73;15.77;;;;;;;9.74;100.00;99434.41;5080497;28;20203;-80
2023/04/19 03:20:32;;;;;;;17.80;15.87;;;;;;;9.75;100.00;99435.25;5110349;28;20181;-80
2023/04/19 03:22:58;;;;;;;17.97;16.07;;;;;;;9.78;100.00;99432.13;5110458;28;20274;-78
2023/04/19 03:25:26;;;;;;;18.43;16.37;;;;;;;9.86;100.00;99429.16;5088145;28;20200;-78
2023/04/19 03:28:01;;;;;;;17.37;15.60;;;;;;;9.78;100.00;99422.22;5098231;28;20283;-78
2023/04/19 03:30:48;;;;;;;17.67;15.87;;;;;;;9.85;100.00;99424.84;5115772;28;20203;-78
2023/04/19 03:33:14;;;;;;;18.33;16.37;;;;;;;9.89;100.00;99423.38;5116228;28;20214;-78
2023/04/19 03:35:42;;;;;;;18.90;16.83;;;;;;;9.88;100.00;99419.88;5097048;28;20195;-79
2023/04/19 03:38:10;;;;;;;18.73;16.50;;;;;;;10.00;100.00;99412.75;5102951;28;20195;-79
2023/04/19 03:40:37;;;;;;;18.00;16.07;;;;;;;10.05;100.00;99420.13;5117181;28;20317;-79
2023/04/19 03:43:05;;;;;;;18.93;16.90;;;;;;;10.05;100.00;99415.59;5100893;28;20196;-80
2023/04/19 03:45:33;;;;;;;18.23;16.30;;;;;;;10.04;100.00;99408.59;5115909;28;20553;-78
2023/04/19 03:48:00;;;;;;;18.23;16.37;;;;;;;10.10;100.00;99409.56;5094619;28;20202;-79
2023/04/19 03:50:29;;;;;;;18.20;16.40;;;;;;;10.13;100.00;99414.47;5102648;28;20187;-79
2023/04/19 03:52:56;;;;;;;19.30;17.10;;;;;;;10.10;100.00;99410.41;5113015;28;20223;-79
2023/04/19 03:55:22;;;;;;;19.57;17.47;;;;;;;10.15;100.00;99409.72;5098511;28;20248;-79
2023/04/19 03:57:49;;;;;;;18.50;16.60;;;;;;;10.13;100.00;99411.78;5114109;28;20202;-79
2023/04/19 04:00:21;;;;;;;20.57;18.17;;;;;;;10.26;100.00;99409.03;5085981;28;20195;-79
2023/04/19 04:02:55;;;;;;;19.17;17.27;;;;;;;10.19;100.00;99410.13;5101425;28;20206;-80
2023/04/19 04:05:22;;;;;;;18.57;16.53;;;;;;;10.27;100.00;99407.16;5097828;28;20257;-79
2023/04/19 04:07:49;;;;;;;19.20;17.10;;;;;;;10.26;100.00;99417.06;5097482;28;20230;-78
2023/04/19 04:10:17;;;;;;;18.53;16.53;;;;;;;10.19;100.00;99413.63;5098166;28;20203;-79
2023/04/19 04:12:44;;;;;;;19.23;17.27;;;;;;;10.18;100.00;99413.84;5082244;28;20207;-79
2023/04/19 04:15:17;;;;;;;19.67;16.83;;;;;;;10.11;100.00;99412.03;5101394;28;20230;-80
2023/04/19 04:17:49;;;;;;;19.40;16.80;;;;;;;10.21;100.00;99414.25;5103808;28;20727;-79
2023/04/19 04:20:18;;;;;;;18.00;16.10;;;;;;;10.19;100.00;99418.16;5098269;28;20263;-80
2023/04/19 04:22:46;;;;;;;19.20;17.10;;;;;;;10.19;100.00;99410.94;5095685;28;20199;-80
2023/04/19 04:25:15;;;;;;;19.10;17.10;;;;;;;10.27;100.00;99407.97;5091780;28;20192;-80
2023/04/19 04:27:43;;;;;;;20.07;17.23;;;;;;;10.24;100.00;99402.25;5104921;28;20195;-80
2023/04/19 04:30:14;;;;;;;19.07;17.00;;;;;;;10.32;100.00;99396.59;5103338;28;20272;-79
2023/04/19 04:32:40;;;;;;;19.03;16.73;;;;;;;10.31;100.00;99400.34;5097634;28;20210;-79
2023/04/19 04:35:08;;;;;;;20.07;17.97;;;;;;;10.31;100.00;99406.47;5079609;28;20191;-79
2023/04/19 04:37:48;;;;;;;19.17;17.17;;;;;;;10.34;100.00;99397.19;5090274;28;20229;-78
2023/04/19 04:40:15;;;;;;;18.27;16.40;;;;;;;10.40;100.00;99407.03;5079127;28;20235;-79
2023/04/19 04:42:41;;;;;;;19.73;17.37;;;;;;;10.49;100.00;99400.31;5115268;28;20278;-79
2023/04/19 04:45:09;;;;;;;18.90;17.03;;;;;;;10.48;100.00;99394.16;5103752;28;20238;-79
2023/04/19 04:47:37;;;;;;;19.10;17.20;;;;;;;10.45;100.00;99396.47;5100912;28;20613;-79
2023/04/19 04:50:06;;;;;;;20.13;18.03;;;;;;;10.46;100.00;99411.47;5099753;28;20227;-79
2023/04/19 04:52:33;;;;;;;20.27;18.23;;;;;;;10.48;100.00;99402.19;5099113;28;20231;-79
2023/04/19 04:55:07;;;;;;;20.10;18.10;;;;;;;10.51;100.00;99403.56;5096544;28;20200;-79
2023/04/19 04:57:38;;;;;;;19.03;17.23;;;;;;;10.50;100.00;99397.41;5083697;28;20643;-78
2023/04/19 05:00:10;;;;;;;19.60;17.47;;;;;;;10.54;100.00;99405.81;5095819;28;20205;-79
2023/04/19 05:02:44;;;;;;;19.60;17.53;;;;;;;10.53;100.00;99399.66;5103363;28;20191;-79
2023/04/19 05:05:11;;;;;;;19.47;17.47;;;;;;;10.66;100.00;99398.66;5097963;28;20191;-78
2023/04/19 05:07:37;;;;;;;18.83;16.93;;;;;;;10.73;100.00;99401.28;5115301;28;20235;-79
2023/04/19 05:10:06;;;;;;;18.87;16.97;;;;;;;10.63;100.00;99393.75;5087339;28;20226;-79
2023/04/19 05:12:41;;;;;;;20.27;17.63;;;;;;;10.70;100.00;99391.81;5104085;28;20211;-78
2023/04/19 05:15:10;;;;;;;20.13;18.03;;;;;;;10.67;100.00;99394.13;5096703;28;20203;-78
2023/04/19 05:17:41;;;;;;;20.43;18.33;;;;;;;10.73;100.00;99390.53;5101864;28;20568;-79
2023/04/19 05:20:09;;;;;;;20.07;17.93;;;;;;;10.76;100.00;99390.09;5096798;28;20227;-78
2023/04/19 05:22:36;;;;;;;20.13;17.97;;;;;;;10.72;100.00;99384.38;5089354;28;20203;-79
2023/04/19 05:25:06;;;;;;;21.17;18.97;;;;;;;10.81;100.00;99387.53;5093752;28;20198;-78
2023/04/19 05:27:32;;;;;;;20.00;17.80;;;;;;;10.81;100.00;99383.00;5078893;28;20180;-78
2023/04/19 05:29:59;;;;;;;19.87;17.97;;;;;;;10.92;100.00;99378.72;5115690;28;20245;-79
2023/04/19 05:32:28;;;;;;;20.30;17.70;;;;;;;10.89;100.00;99382.69;5099152;28;20210;-79
2023/04/19 05:34:57;;;;;;;19.30;17.40;;;;;;;10.98;100.00;99389.34;5109455;28;20256;-79
2023/04/19 05:37:24;;;;;;;19.87;17.97;;;;;;;10.94;100.00;99380.13;5100679;28;20261;-81
2023/04/19 05:39:50;;;;;;;19.93;17.93;;;;;;;10.96;100.00;99382.59;5107990;28;20276;-79
2023/04/19 05:42:17;;;;;;;20.27;18.17;;;;;;;10.85;100.00;99380.69;5094527;28;20199;-79
2023/04/19 05:44:44;;;;;;;19.60;17.60;;;;;;;11.00;100.00;99373.88;5115408;28;20187;-79
2023/04/19 05:47:11;;;;;;;20.07;17.97;;;;;;;11.01;100.00;99375.47;5097503;28;20195;-78
2023/04/19 05:50:17;;;;;;;20.50;18.30;;;;;;;11.06;100.00;99377.47;5011559;28;20206;-79
2023/04/19 05:52:51;;;;;;;20.70;18.60;;;;;;;10.98;100.00;99375.13;4997936;28;20287;-79
2023/04/19 05:55:17;;;;;;;19.67;17.47;;;;;;;10.97;100.00;99376.16;5045905;28;20218;-79
2023/04/19 05:57:44;;;;;;;20.60;18.50;;;;;;;10.89;100.00;99380.00;5072595;28;20193;-79
2023/04/19 06:00:12;;;;;;;21.20;19.10;;;;;;;10.93;100.00;99372.31;5099910;28;20283;-78
2023/04/19 06:02:49;;;;;;;21.60;19.30;;;;;;;10.90;100.00;99372.78;5087681;28;20191;-79
2023/04/19 06:05:16;;;;;;;19.70;17.60;;;;;;;11.00;100.00;99367.69;5101231;28;20244;-79
2023/04/19 06:07:43;;;;;;;19.87;17.87;;;;;;;10.97;100.00;99374.31;5101861;28;20215;-81
2023/04/19 06:10:25;;;;;;;21.50;18.70;;;;;;;11.00;100.00;99373.06;5116292;28;20203;-78
2023/04/19 06:13:02;;;;;;;20.33;18.23;;;;;;;11.00;100.00;99379.25;5103545;28;20210;-79
2023/04/19 06:15:29;;;;;;;20.03;18.03;;;;;;;11.01;100.00;99374.69;5104157;28;20191;-80
2023/04/19 06:17:56;;;;;;;20.43;18.37;;;;;;;11.09;100.00;99368.19;5122016;28;20179;-79
2023/04/19 06:20:25;;;;;;;19.73;17.73;;;;;;;11.16;100.00;99366.19;5114499;28;20220;-79
2023/04/19 06:22:52;;;;;;;19.63;17.63;;;;;;;11.15;100.00;99370.75;5092966;28;20290;-79
2023/04/19 06:25:18;;;;;;;20.00;17.40;;;;;;;11.16;100.00;99371.56;5121381;28;20274;-79
2023/04/19 06:27:45;;;;;;;19.73;17.73;;;;;;;11.11;100.00;99361.53;5121228;28;20245;-80
2023/04/19 06:30:12;;;;;;;19.40;17.10;;;;;;;11.25;100.00;99362.13;5121873;28;20184;-79
2023/04/19 06:32:39;;;;;;;19.50;17.50;;;;;;;11.25;100.00;99351.41;5121386;28;20218;-80
2023/04/19 06:35:06;;;;;;;19.03;17.13;;;;;;;11.31;100.00;99358.53;5121685;28;20203;-79
2023/04/19 06:37:33;;;;;;;19.03;17.13;;;;;;;11.57;100.00;99363.47;5119964;28;20677;-79
2023/04/19 06:40:00;;;;;;;19.60;17.43;;;;;;;11.76;100.00;99358.84;5117071;28;20292;-79
2023/04/19 06:42:27;;;;;;;19.73;17.70;;;;;;;11.72;100.00;99355.81;5097687;28;20206;-80
2023/04/19 06:44:55;;;;;;;20.27;18.17;;;;;;;11.78;100.00;99367.50;5119525;28;20275;-80
2023/04/19 06:47:22;;;;;;;19.63;17.57;;;;;;;12.01;100.00;99366.66;5119004;28;20195;-79
2023/04/19 06:49:49;;;;;;;18.87;16.97;;;;;;;12.29;100.00;99372.09;5117654;28;20733;-79
2023/04/19 06:52:15;;;;;;;19.50;17.60;;;;;;;12.45;100.00;99373.25;5116138;28;20275;-79
2023/04/19 06:54:49;;;;;;;19.63;17.63;;;;;;;12.52;100.00;99368.53;5102158;28;20180;-79
2023/04/19 06:57:17;;;;;;;18.63;16.60;;;;;;;12.53;100.00;99368.31;5097434;28;20183;-79
2023/04/19 06:59:43;;;;;;;17.57;15.83;;;;;;;12.50;100.00;99366.13;5096168;28;20262;-80
2023/04/19 07:02:10;;;;;;;16.90;15.10;;;;;;;12.43;100.00;99364.59;5114076;28;20583;-79
2023/04/19 07:04:37;;;;;;;15.83;14.23;;;;;;;12.22;100.00;99366.88;5116696;28;20194;-79
2023/04/19 07:07:04;;;;;;;16.77;15.07;;;;;;;12.07;100.00;99361.19;5116524;28;20187;-79
2023/04/19 07:09:31;;;;;;;15.93;14.43;;;;;;;12.01;100.00;99363.97;5115371;28;20270;-79
2023/04/19 07:11:57;;;;;;;15.97;14.47;;;;;;;11.82;100.00;99358.72;5114929;28;20231;-79
2023/04/19 07:14:24;;;;;;;16.03;14.50;;;;;;;11.54;100.00;99360.44;5108691;28;20191;-82
2023/04/19 07:16:52;;;;;;;16.13;14.53;;;;;;;11.55;100.00;99357.53;5104364;28;20204;-81
2023/04/19 07:19:21;;;;;;;17.30;15.27;;;;;;;11.27;100.00;99354.69;5112471;28;20223;-82
2023/04/19 07:21:49;;;;;;;17.53;15.73;;;;;;;11.42;100.00;99360.44;5131054;28;20203;-80
2023/04/19 07:24:17;;;;;;;16.70;15.00;;;;;;;11.32;100.00;99350.28;5114787;28;20217;-80
2023/04/19 07:26:44;;;;;;;16.57;14.93;;;;;;;11.24;100.00;99352.47;5108192;28;20295;-81
2023/04/19 07:29:11;;;;;;;16.47;14.77;;;;;;;11.28;100.00;99362.53;5114180;28;20200;-81
2023/04/19 07:31:41;;;;;;;15.40;13.90;;;;;;;11.09;100.00;99346.72;5120516;28;20203;-80
2023/04/19 07:34:09;;;;;;;16.20;14.60;;;;;;;11.00;100.00;99359.66;5115820;28;20235;-79
2023/04/19 07:36:36;;;;;;;15.70;14.13;;;;;;;11.03;100.00;99351.97;5099771;28;20575;-78
2023/04/19 07:39:03;;;;;;;17.00;15.20;;;;;;;10.95;100.00;99356.84;5114512;28;20184;-79
2023/04/19 07:41:33;;;;;;;17.00;15.20;;;;;;;10.94;100.00;99355.19;5115260;28;20211;-79
2023/04/19 07:44:01;;;;;;;16.67;15.07;;;;;;;10.93;100.00;99358.91;5101848;28;20256;-78
2023/04/19 07:46:28;;;;;;;15.60;14.10;;;;;;;10.79;100.00;99352.09;5117540;28;20199;-79
2023/04/19 07:48:55;;;;;;;16.87;15.07;;;;;;;10.81;100.00;99355.38;5115954;28;20236;-79
2023/04/19 07:51:23;;;;;;;15.97;14.37;;;;;;;10.89;100.00;99352.38;5117030;28;20191;-78
2023/04/19 07:53:50;;;;;;;16.33;14.60;;;;;;;10.95;100.00;99356.84;5116998;28;20623;-78
2023/04/19 07:56:18;;;;;;;15.23;13.73;;;;;;;10.91;100.00;99348.44;5117399;28;20187;-78
2023/04/19 07:58:45;;;;;;;16.30;14.60;;;;;;;10.85;100.00;99352.03;5118826;28;20184;-79
2023/04/19 08:01:22;;;;;;;15.60;14.00;;;;;;;10.85;100.00;99353.88;5117771;28;20191;-79
2023/04/19 08:03:49;;;;;;;15.70;14.10;;;;;;;10.95;100.00;99352.28;5117749;28;20198;-78
2023/04/19 08:06:16;;;;;;;15.53;13.87;;;;;;;11.01;100.00;99356.72;5109767;28;20191;-78
2023/04/19 08:08:43;;;;;;;15.00;13.40;;;;;;;10.89;100.00;99353.19;5115511;28;20207;-78
2023/04/19 08:11:10;;;;;;;14.73;12.83;;;;;;;10.98;100.00;99359.06;5115231;28;20184;-78
2023/04/19 08:13:36;;;;;;;12.53;11.33;;;;;;;11.16;100.00;99352.78;5113916;28;20195;-78
2023/04/19 08:16:06;;;;;;;11.87;10.40;;;;;;;11.25;100.00;99352.22;5114810;28;20191;-77
2023/04/19 08:18:35;;;;;;;11.20;10.17;;;;;;;11.28;100.00;99357.16;5108391;28;20192;-79
2023/04/19 08:21:02;;;;;;;11.93;10.70;;;;;;;11.41;100.00;99356.13;5116174;27;20219;-78
2023/04/19 08:23:29;;;;;;;12.37;11.17;;;;;;;11.37;100.00;99353.09;5115958;28;20191;-80
2023/04/19 08:26:07;;;;;;;11.33;10.30;;;;;;;11.45;100.00;99357.28;5115971;28;20240;-78
2023/04/19 08:28:33;;;;;;;11.27;9.87;;;;;;;11.61;100.00;99350.44;5115673;28;20183;-78
2023/04/19 08:31:00;;;;;;;10.30;9.40;;;;;;;11.72;100.00;99349.59;5114721;28;20184;-77
2023/04/19 08:33:27;;;;;;;10.73;9.73;;;;;;;11.70;100.00;99360.59;5103336;28;20211;-78
2023/04/19 08:35:54;;;;;;;9.73;8.33;;;;;;;11.81;100.00;99356.28;5110841;28;20267;-77
2023/04/19 08:38:21;;;;;;;9.17;8.33;;;;;;;11.89;100.00;99353.25;5119005;28;20218;-77
2023/04/19 08:40:51;;;;;;;10.87;9.77;;;;;;;12.03;100.00;99360.00;5115805;28;20574;-78
2023/04/19 08:43:18;;;;;;;9.73;8.77;;;;;;;12.05;100.00;99357.88;5116406;28;20706;-78
2023/04/19 08:45:49;;;;;;;10.00;8.90;;;;;;;12.39;100.00;99355.38;5100526;28;20188;-79
2023/04/19 08:48:17;;;;;;;8.67;7.70;;;;;;;12.59;100.00;99355.78;5110417;28;20605;-79
2023/04/19 08:50:47;;;;;;;8.53;7.73;;;;;;;12.72;100.00;99356.31;5101192;28;20187;-79
2023/04/19 08:53:32;;;;;;;8.60;7.70;;;;;;;12.52;100.00;99363.16;5113305;28;20205;-78
2023/04/19 08:56:00;;;;;;;9.50;7.97;;;;;;;12.20;100.00;99355.53;5114354;28;20214;-78
2023/04/19 08:58:31;;;;;;;8.80;7.90;;;;;;;12.00;100.00;99356.97;5114605;28;20194;-77
2023/04/19 09:01:04;;;;;;;9.20;8.30;;;;;;;11.83;100.00;99348.81;5115410;28;20192;-77
2023/04/19 09:03:31;;;;;;;9.33;8.40;;;;;;;11.92;100.00;99347.41;5113293;28;20195;-78
2023/04/19 09:06:13;;;;;;;8.00;7.23;;;;;;;11.71;100.00;99345.31;5102543;28;20191;-77
2023/04/19 09:08:40;;;;;;;8.67;7.83;;;;;;;11.82;100.00;99345.31;5114396;28;20284;-78
2023/04/19 09:11:08;;;;;;;9.03;8.13;;;;;;;11.92;100.00;99350.09;5114431;28;20187;-77
2023/04/19 09:13:39;;;;;;;9.50;8.60;;;;;;;12.17;100.00;99342.59;5111609;28;20199;-78
2023/04/19 09:16:09;;;;;;;9.13;7.80;;;;;;;12.41;100.00;99339.84;5113083;28;20188;-78
2023/04/19 09:18:53;;;;;;;8.83;8.03;;;;;;;12.70;100.00;99339.59;5115513;28;20187;-81
2023/04/19 09:21:34;;;;;;;8.70;7.90;;;;;;;12.77;100.00;99344.84;5115225;28;20198;-79
2023/04/19 09:24:02;;;;;;;8.13;7.27;;;;;;;12.84;100.00;99340.13;5113928;28;20684;-79
2023/04/19 09:26:30;;;;;;;8.27;7.57;;;;;;;12.90;100.00;99344.56;5099245;28;20272;-78
2023/04/19 09:29:00;;;;;;;8.67;7.67;;;;;;;13.01;100.00;99332.13;5119760;28;20294;-78
2023/04/19 09:31:29;;;;;;;8.23;7.30;;;;;;;13.09;100.00;99339.78;5117294;28;20198;-78
2023/04/19 09:34:17;;;;;;;7.60;6.90;;;;;;;13.40;100.00;99331.19;5116628;28;20242;-79
2023/04/19 09:36:45;;;;;;;8.43;6.90;;;;;;;13.41;100.00;99332.81;5106217;28;20699;-78
2023/04/19 09:39:13;;;;;;;7.50;6.80;;;;;;;13.71;100.00;99332.47;5115495;28;20603;-79
2023/04/19 09:41:53;;;;;;;8.13;7.43;;;;;;;13.93;100.00;99341.41;5114818;28;20187;-79
2023/04/19 09:44:20;;;;;;;7.30;6.60;;;;;;;13.93;100.00;99336.03;5112216;28;20672;-78
2023/04/19 09:46:51;;;;;;;7.13;6.43;;;;;;;13.64;100.00;99343.41;5114830;28;20650;-79
2023/04/19 09:49:25;;;;;;;7.50;6.80;;;;;;;13.39;100.00;99340.31;5114221;28;20215;-80
2023/04/19 09:52:13;;;;;;;6.13;5.53;;;;;;;12.98;100.00;99346.03;5090702;28;20234;-79
2023/04/19 09:54:40;;;;;;;6.60;5.97;;;;;;;12.61;100.00;99343.75;5116103;28;20210;-78
2023/04/19 09:57:07;;;;;;;6.90;6.20;;;;;;;12.89;100.00;99339.41;5114418;28;20267;-79
2023/04/19 09:59:34;;;;;;;8.60;6.20;;;;;;;12.87;100.00;99342.34;5102015;28;20639;-80
2023/04/19 10:02:01;;;;;;;6.73;6.10;;;;;;;12.78;100.00;99354.56;5113779;28;20189;-79
2023/04/19 10:04:28;;;;;;;6.63;5.93;;;;;;;12.88;100.00;99349.34;5110778;28;20222;-79
2023/04/19 10:07:15;;;;;;;6.87;6.17;;;;;;;12.95;100.00;99359.97;5113966;28;20187;-79
2023/04/19 10:09:45;;;;;;;6.10;5.50;;;;;;;12.65;100.00;99344.88;5107285;28;20198;-79
2023/04/19 10:12:15;;;;;;;6.97;6.23;;;;;;;13.30;100.00;99339.09;5117481;28;20195;-79
2023/04/19 10:14:46;;;;;;;6.77;6.00;;;;;;;13.55;100.00;99341.38;5114855;28;20202;-79
2023/04/19 10:17:14;;;;;;;5.60;5.10;;;;;;;13.33;100.00;99335.91;5115313;28;20255;-79
2023/04/19 10:19:42;;;;;;;6.20;5.70;;;;;;;13.03;100.00;99352.31;5115964;28;20195;-78
2023/04/19 10:22:09;;;;;;;6.67;5.97;;;;;;;12.72;100.00;99347.44;5115160;28;20198;-79
2023/04/19 10:24:36;;;;;;;6.60;6.00;;;;;;;12.88;100.00;99345.88;5114582;28;20195;-79
2023/04/19 10:27:10;;;;;;;6.40;5.77;;;;;;;13.05;100.00;99342.16;5114083;28;20191;-78
2023/04/19 10:29:57;;;;;;;5.83;5.33;;;;;;;12.84;100.00;99342.81;5108728;28;20553;-79
2023/04/19 10:32:37;;;;;;;5.90;5.40;;;;;;;12.75;100.00;99338.88;5097039;28;20640;-81
2023/04/19 10:35:22;;;;;;;6.47;5.83;;;;;;;12.51;100.00;99340.03;5113121;28;20289;-79
2023/04/19 10:38:07;;;;;;;6.37;5.77;;;;;;;12.61;100.00;99343.75;5096437;28;20188;-79
2023/04/19 10:40:55;;;;;;;6.53;5.70;;;;;;;12.38;100.00;99341.13;5085395;28;20232;-79
2023/04/19 10:43:23;;;;;;;5.23;4.73;;;;;;;12.08;100.00;99343.19;5094615;28;20188;-78
2023/04/19 10:45:50;;;;;;;5.40;4.90;;;;;;;12.70;100.00;99334.22;5094659;28;20196;-78
2023/04/19 10:48:29;;;;;;;8.27;7.57;;;;;;;12.28;100.00;99331.00;5094336;28;20188;-78
2023/04/19 10:50:59;;;;;;;6.83;6.13;;;;;;;13.08;100.00;99328.19;5094059;28;20680;-79
2023/04/19 10:53:52;;;;;;;5.67;5.17;;;;;;;13.22;100.00;99326.03;5093284;28;20574;-79
2023/04/19 10:56:42;;;;;;;12.30;11.20;;;;;;;13.28;100.00;99324.25;5092439;28;20195;-79
2023/04/19 10:59:20;;;;;;;7.70;7.00;;;;;;;13.39;100.00;99318.78;5094470;28;20202;-79
2023/04/19 11:01:52;;;;;;;6.90;6.27;;;;;;;13.84;100.00;99323.22;5092156;28;20612;-79
2023/04/19 11:04:28;;;;;;;6.87;6.23;;;;;;;14.91;100.00;99318.88;5092622;28;20655;-79
2023/04/19 11:07:03;;;;;;;7.10;6.40;;;;;;;15.62;100.00;99316.00;5092954;28;20188;-79
2023/04/19 11:09:31;;;;;;;6.00;5.50;;;;;;;16.11;100.00;99317.34;5093270;28;20230;-78
2023/04/19 11:12:07;;;;;;;6.17;5.67;;;;;;;16.48;100.00;99319.13;5091761;28;20191;-78
2023/04/19 11:14:45;;;;;;;6.00;5.50;;;;;;;16.80;100.00;99310.88;5088439;28;20255;-79
2023/04/19 11:17:16;;;;;;;5.20;4.70;;;;;;;16.22;100.00;99310.94;5094051;28;20735;-79
2023/04/19 11:19:54;;;;;;;5.43;4.90;;;;;;;15.51;100.00;99307.00;5095808;28;20191;-79
2023/04/19 11:22:25;;;;;;;5.40;5.00;;;;;;;16.09;100.00;99302.50;5086746;28;20286;-79
2023/04/19 11:24:52;;;;;;;5.70;5.30;;;;;;;16.99;100.00;99301.97;5096015;28;20606;-79